PWSweather.com
Personal Weather Stations
Station Observations
GEELONGWX1
Bell Post Hill, GeelongAU

Bell Post HillGeelongAU

Lat: -38.101, Lon: 144.326

Elevation: 204

Station Type: Davis Vantage Pro2

http://www.geelongweather.com

High Low Average
Temperature 94.1°F34.5°F 58.8°F14.9°F 70.7°F21.5°F
Dew Point 63.2°F17.3°F 51.1°F10.6°F 58.4°F14.7°F
Winds 9.2 mph S14.8 mph S Calm Calm 1.9 mph 3.1 mph
Wind Gusts 18.4 mph29.6 mph -- 4.7 mph7.6 mph
Humidity 92% 24% 69%
Pressure 29.91 in1012.90 in 29.78 in1008.50 in -
Precipitation 0.00 in0.00 in - -
Hour Temp Dew Point Humidity Winds Wind Gusts Pressure Precip Precip Rate Daily Precip Total
12:00 AM 61.7°F16.5°C 57.1°F13.9°C 85% Calm Calm -- 29.90 in1012.5 mb - 0.00 in0.0 mm 0.00 in0.0 mm
12:10 AM 61.6°F16.4°C 57.4°F14.1°C 86% Calm Calm -- 29.90 in1012.5 mb - 0.00 in0.0 mm 0.00 in0.0 mm
12:20 AM 61.5°F16.4°C 57.3°F14.1°C 86% Calm Calm -- 29.89 in1012.2 mb - 0.00 in0.0 mm 0.00 in0.0 mm
12:30 AM 61.3°F16.3°C 57.1°F13.9°C 86% Calm Calm -- 29.89 in1012.2 mb - 0.00 in0.0 mm 0.00 in0.0 mm
12:40 AM 61.2°F16.2°C 57.3°F14.1°C 87% Calm Calm -- 29.88 in1011.9 mb - 0.00 in0.0 mm 0.00 in0.0 mm
12:50 AM 61.1°F16.2°C 57.2°F14.0°C 87% Calm Calm -- 29.88 in1011.9 mb - 0.00 in0.0 mm 0.00 in0.0 mm
01:00 AM 60.9°F16.1°C 57.0°F13.9°C 87% Calm Calm -- 29.88 in1011.9 mb - 0.00 in0.0 mm 0.00 in0.0 mm
01:10 AM 60.7°F15.9°C 56.8°F13.8°C 87% Calm Calm -- 29.88 in1011.9 mb - 0.00 in0.0 mm 0.00 in0.0 mm
01:20 AM 60.5°F15.8°C 56.7°F13.7°C 87% Calm Calm -- 29.87 in1011.5 mb - 0.00 in0.0 mm 0.00 in0.0 mm
01:30 AM 60.4°F15.8°C 56.5°F13.6°C 87% Calm Calm -- 29.87 in1011.5 mb - 0.00 in0.0 mm 0.00 in0.0 mm
01:40 AM 60.4°F15.8°C 56.8°F13.8°C 88% Calm Calm -- 29.86 in1011.2 mb - 0.00 in0.0 mm 0.00 in0.0 mm
01:50 AM 60.3°F15.7°C 56.8°F13.8°C 88% Calm Calm -- 29.86 in1011.2 mb - 0.00 in0.0 mm 0.00 in0.0 mm
02:00 AM 60.4°F15.8°C 57.1°F13.9°C 89% Calm Calm -- 29.86 in1011.2 mb - 0.00 in0.0 mm 0.00 in0.0 mm
02:10 AM 60.4°F15.8°C 57.1°F13.9°C 89% Calm Calm -- 29.85 in1010.8 mb - 0.00 in0.0 mm 0.00 in0.0 mm
02:20 AM 60.6°F15.9°C 57.6°F14.2°C 90% Calm Calm -- 29.85 in1010.8 mb - 0.00 in0.0 mm 0.00 in0.0 mm
02:30 AM 60.6°F15.9°C 57.6°F14.2°C 90% Calm Calm -- 29.85 in1010.8 mb - 0.00 in0.0 mm 0.00 in0.0 mm
02:40 AM 60.4°F15.8°C 57.1°F13.9°C 89% Calm Calm -- 29.86 in1011.2 mb - 0.00 in0.0 mm 0.00 in0.0 mm
02:50 AM 60.2°F15.7°C 56.9°F13.8°C 89% Calm Calm -- 29.85 in1010.8 mb - 0.00 in0.0 mm 0.00 in0.0 mm
03:00 AM 60.1°F15.6°C 56.8°F13.8°C 89% Calm Calm -- 29.85 in1010.8 mb - 0.00 in0.0 mm 0.00 in0.0 mm
03:10 AM 60.1°F15.6°C 57.1°F13.9°C 90% Calm Calm -- 29.84 in1010.5 mb - 0.00 in0.0 mm 0.00 in0.0 mm
03:20 AM 60.0°F15.6°C 57.1°F13.9°C 90% Calm Calm -- 29.84 in1010.5 mb - 0.00 in0.0 mm 0.00 in0.0 mm
03:30 AM 59.8°F15.4°C 56.9°F13.8°C 90% Calm Calm -- 29.84 in1010.5 mb - 0.00 in0.0 mm 0.00 in0.0 mm
03:40 AM 59.9°F15.5°C 57.6°F14.2°C 92% Calm Calm -- 29.84 in1010.5 mb - 0.00 in0.0 mm 0.00 in0.0 mm
03:50 AM 60.3°F15.7°C 57.4°F14.1°C 90% Calm Calm 11.5 mph18.5 kmh 29.84 in1010.5 mb - 0.00 in0.0 mm 0.00 in0.0 mm
04:00 AM 60.6°F15.9°C 58.0°F14.4°C 91% Calm Calm -- 29.84 in1010.5 mb - 0.00 in0.0 mm 0.00 in0.0 mm
04:10 AM 60.7°F15.9°C 57.4°F14.1°C 89% Calm Calm -- 29.83 in1010.2 mb - 0.00 in0.0 mm 0.00 in0.0 mm
04:20 AM 60.4°F15.8°C 57.2°F14.0°C 89% 3.5 mph SW5.6 kmh SW 5.8 mph9.3 kmh 29.84 in1010.5 mb - 0.00 in0.0 mm 0.00 in0.0 mm
04:30 AM 60.0°F15.6°C 56.4°F13.6°C 88% 5.8 mph SSW9.3 kmh SSW 9.2 mph14.8 kmh 29.84 in1010.5 mb - 0.00 in0.0 mm 0.00 in0.0 mm
04:40 AM 59.7°F15.4°C 56.5°F13.6°C 89% 4.6 mph SSW7.4 kmh SSW 8.1 mph13.0 kmh 29.83 in1010.2 mb - 0.00 in0.0 mm 0.00 in0.0 mm
04:50 AM 59.5°F15.3°C 56.3°F13.5°C 89% 4.6 mph SSW7.4 kmh SSW 6.9 mph11.1 kmh 29.84 in1010.5 mb - 0.00 in0.0 mm 0.00 in0.0 mm
05:00 AM 59.3°F15.2°C 56.1°F13.4°C 89% Calm Calm -- 29.84 in1010.5 mb - 0.00 in0.0 mm 0.00 in0.0 mm
05:10 AM 59.1°F15.1°C 56.2°F13.4°C 90% Calm Calm -- 29.84 in1010.5 mb - 0.00 in0.0 mm 0.00 in0.0 mm
05:20 AM 59.0°F15.0°C 56.1°F13.4°C 90% 1.2 mph SW1.9 kmh SW 1.2 mph1.9 kmh 29.84 in1010.5 mb - 0.00 in0.0 mm 0.00 in0.0 mm
05:30 AM 58.9°F14.9°C 56.0°F13.3°C 90% 3.5 mph SW5.6 kmh SW 5.8 mph9.3 kmh 29.84 in1010.5 mb - 0.00 in0.0 mm 0.00 in0.0 mm
05:40 AM 58.8°F14.9°C 55.9°F13.3°C 90% 1.2 mph SW1.9 kmh SW 1.2 mph1.9 kmh 29.84 in1010.5 mb - 0.00 in0.0 mm 0.00 in0.0 mm
05:50 AM 58.8°F14.9°C 55.9°F13.3°C 90% 2.3 mph SW3.7 kmh SW 5.8 mph9.3 kmh 29.85 in1010.8 mb - 0.00 in0.0 mm 0.00 in0.0 mm
06:00 AM 58.9°F14.9°C 56.3°F13.5°C 91% Calm Calm -- 29.84 in1010.5 mb - 0.00 in0.0 mm 0.00 in0.0 mm
06:10 AM 59.1°F15.1°C 56.5°F13.6°C 91% Calm Calm 2.3 mph3.7 kmh 29.85 in1010.8 mb - 0.00 in0.0 mm 0.00 in0.0 mm
06:20 AM 59.3°F15.2°C 56.7°F13.7°C 91% Calm Calm -- 29.85 in1010.8 mb - 0.00 in0.0 mm 0.00 in0.0 mm
06:30 AM 59.5°F15.3°C 56.9°F13.8°C 91% 2.3 mph SSW3.7 kmh SSW 9.2 mph14.8 kmh 29.86 in1011.2 mb - 0.00 in0.0 mm 0.00 in0.0 mm
06:40 AM 59.8°F15.4°C 57.2°F14.0°C 91% Calm Calm -- 29.86 in1011.2 mb - 0.00 in0.0 mm 0.00 in0.0 mm
06:50 AM 60.2°F15.7°C 57.6°F14.2°C 91% 4.6 mph S7.4 kmh S 6.9 mph11.1 kmh 29.88 in1011.9 mb - 0.00 in0.0 mm 0.00 in0.0 mm
07:00 AM 60.2°F15.7°C 57.3°F14.1°C 90% Calm Calm -- 29.87 in1011.5 mb - 0.00 in0.0 mm 0.00 in0.0 mm
07:10 AM 60.4°F15.8°C 57.4°F14.1°C 90% Calm Calm -- 29.87 in1011.5 mb - 0.00 in0.0 mm 0.00 in0.0 mm
07:20 AM 60.7°F15.9°C 57.7°F14.3°C 90% Calm Calm -- 29.87 in1011.5 mb - 0.00 in0.0 mm 0.00 in0.0 mm
07:30 AM 63.4°F17.4°C 59.5°F15.3°C 87% Calm Calm -- 29.87 in1011.5 mb - 0.00 in0.0 mm 0.00 in0.0 mm
07:40 AM 64.9°F18.3°C 58.9°F14.9°C 81% Calm Calm -- 29.87 in1011.5 mb - 0.00 in0.0 mm 0.00 in0.0 mm
07:50 AM 64.6°F18.1°C 58.3°F14.6°C 80% Calm Calm -- 29.87 in1011.5 mb - 0.00 in0.0 mm 0.00 in0.0 mm
08:00 AM 64.6°F18.1°C 58.3°F14.6°C 80% Calm Calm 5.8 mph9.3 kmh 29.88 in1011.9 mb - 0.00 in0.0 mm 0.00 in0.0 mm
08:10 AM 66.6°F19.2°C 58.4°F14.7°C 75% Calm Calm -- 29.87 in1011.5 mb - 0.00 in0.0 mm 0.00 in0.0 mm
08:20 AM 66.1°F18.9°C 57.9°F14.4°C 75% Calm Calm -- 29.88 in1011.9 mb - 0.00 in0.0 mm 0.00 in0.0 mm
08:30 AM 65.8°F18.8°C 57.7°F14.3°C 75% Calm Calm -- 29.86 in1011.2 mb - 0.00 in0.0 mm 0.00 in0.0 mm
08:40 AM 66.0°F18.9°C 57.8°F14.3°C 75% Calm Calm -- 29.87 in1011.5 mb - 0.00 in0.0 mm 0.00 in0.0 mm
08:50 AM 66.4°F19.1°C 57.9°F14.4°C 74% Calm Calm -- 29.87 in1011.5 mb - 0.00 in0.0 mm 0.00 in0.0 mm
09:00 AM 67.4°F19.7°C 58.8°F14.9°C 74% Calm Calm 4.6 mph7.4 kmh 29.87 in1011.5 mb - 0.00 in0.0 mm 0.00 in0.0 mm
09:10 AM 70.0°F21.1°C 59.3°F15.2°C 69% Calm Calm -- 29.87 in1011.5 mb - 0.00 in0.0 mm 0.00 in0.0 mm
09:20 AM 71.9°F22.2°C 59.9°F15.5°C 66% 3.5 mph S5.6 kmh S 12.7 mph20.4 kmh 29.86 in1011.2 mb - 0.00 in0.0 mm 0.00 in0.0 mm
09:30 AM 74.4°F23.6°C 60.5°F15.8°C 62% 3.5 mph S5.6 kmh S 6.9 mph11.1 kmh 29.87 in1011.5 mb - 0.00 in0.0 mm 0.00 in0.0 mm
09:40 AM 75.9°F24.4°C 60.1°F15.6°C 58% 3.5 mph S5.6 kmh S 5.8 mph9.3 kmh 29.86 in1011.2 mb - 0.00 in0.0 mm 0.00 in0.0 mm
09:50 AM 75.7°F24.3°C 60.4°F15.8°C 59% Calm Calm -- 29.86 in1011.2 mb - 0.00 in0.0 mm 0.00 in0.0 mm
10:00 AM 77.2°F25.1°C 59.3°F15.2°C 54% Calm Calm -- 29.86 in1011.2 mb - 0.00 in0.0 mm 0.00 in0.0 mm
10:10 AM 78.5°F25.8°C 59.4°F15.2°C 52% 6.9 mph SSE11.1 kmh SSE 10.4 mph16.7 kmh 29.86 in1011.2 mb - 0.00 in0.0 mm 0.00 in0.0 mm
10:20 AM 79.2°F26.2°C 60.0°F15.6°C 52% Calm Calm 2.3 mph3.7 kmh 29.85 in1010.8 mb - 0.00 in0.0 mm 0.00 in0.0 mm
10:30 AM 81.9°F27.7°C 59.7°F15.4°C 47% Calm Calm -- 29.85 in1010.8 mb - 0.00 in0.0 mm 0.00 in0.0 mm
10:40 AM 82.6°F28.1°C 60.4°F15.8°C 47% 4.6 mph SSW7.4 kmh SSW 10.4 mph16.7 kmh 29.85 in1010.8 mb - 0.00 in0.0 mm 0.00 in0.0 mm
10:50 AM 84.9°F29.4°C 58.6°F14.8°C 41% 6.9 mph S11.1 kmh S 11.5 mph18.5 kmh 29.85 in1010.8 mb - 0.00 in0.0 mm 0.00 in0.0 mm
11:00 AM 85.4°F29.7°C 57.7°F14.3°C 39% 1.2 mph SW1.9 kmh SW 4.6 mph7.4 kmh 29.84 in1010.5 mb - 0.00 in0.0 mm 0.00 in0.0 mm
11:10 AM 86.5°F30.3°C 57.9°F14.4°C 38% 3.5 mph S5.6 kmh S 13.8 mph22.2 kmh 29.84 in1010.5 mb - 0.00 in0.0 mm 0.00 in0.0 mm
11:30 AM 87.9°F31.1°C 55.2°F12.9°C 33% 5.8 mph SSW9.3 kmh SSW 13.8 mph22.2 kmh 29.83 in1010.2 mb - 0.00 in0.0 mm 0.00 in0.0 mm
11:40 AM 88.8°F31.6°C 56.8°F13.8°C 34% 3.5 mph S5.6 kmh S 11.5 mph18.5 kmh 29.82 in1009.8 mb - 0.00 in0.0 mm 0.00 in0.0 mm
11:50 AM 88.6°F31.4°C 55.8°F13.2°C 33% 4.6 mph S7.4 kmh S 13.8 mph22.2 kmh 29.82 in1009.8 mb - 0.00 in0.0 mm 0.00 in0.0 mm
12:00 PM 89.9°F32.2°C 56.1°F13.4°C 32% 2.3 mph S3.7 kmh S 10.4 mph16.7 kmh 29.81 in1009.5 mb - 0.00 in0.0 mm 0.00 in0.0 mm
12:10 PM 91.0°F32.8°C 53.4°F11.9°C 28% 3.5 mph S5.6 kmh S 4.6 mph7.4 kmh 29.81 in1009.5 mb - 0.00 in0.0 mm 0.00 in0.0 mm
12:20 PM 91.0°F32.8°C 54.4°F12.4°C 29% 2.3 mph S3.7 kmh S 8.1 mph13.0 kmh 29.81 in1009.5 mb - 0.00 in0.0 mm 0.00 in0.0 mm
12:30 PM 92.1°F33.4°C 53.3°F11.8°C 27% 6.9 mph S11.1 kmh S 9.2 mph14.8 kmh 29.80 in1009.1 mb - 0.00 in0.0 mm 0.00 in0.0 mm
12:40 PM 92.7°F33.7°C 53.8°F12.1°C 27% 4.6 mph S7.4 kmh S 11.5 mph18.5 kmh 29.80 in1009.1 mb - 0.00 in0.0 mm 0.00 in0.0 mm
12:50 PM 93.9°F34.4°C 52.8°F11.6°C 25% 5.8 mph S9.3 kmh S 10.4 mph16.7 kmh 29.79 in1008.8 mb - 0.00 in0.0 mm 0.00 in0.0 mm
01:00 PM 92.9°F33.8°C 54.0°F12.2°C 27% Calm Calm -- 29.79 in1008.8 mb - 0.00 in0.0 mm 0.00 in0.0 mm
01:10 PM 94.1°F34.5°C 54.0°F12.2°C 26% Calm Calm -- 29.79 in1008.8 mb - 0.00 in0.0 mm 0.00 in0.0 mm
01:20 PM 94.0°F34.4°C 52.8°F11.6°C 25% 5.8 mph S9.3 kmh S 9.2 mph14.8 kmh 29.79 in1008.8 mb - 0.00 in0.0 mm 0.00 in0.0 mm
01:30 PM 93.3°F34.1°C 51.1°F10.6°C 24% 3.5 mph SE5.6 kmh SE 3.5 mph5.6 kmh 29.79 in1008.8 mb - 0.00 in0.0 mm 0.00 in0.0 mm
01:40 PM 87.9°F31.1°C 61.9°F16.6°C 42% Calm Calm 3.5 mph5.6 kmh 29.78 in1008.5 mb - 0.00 in0.0 mm 0.00 in0.0 mm
01:50 PM 85.1°F29.5°C 63.2°F17.3°C 48% 2.3 mph E3.7 kmh E 11.5 mph18.5 kmh 29.78 in1008.5 mb - 0.00 in0.0 mm 0.00 in0.0 mm
02:00 PM 83.7°F28.7°C 63.1°F17.3°C 50% 2.3 mph E3.7 kmh E 11.5 mph18.5 kmh 29.78 in1008.5 mb - 0.00 in0.0 mm 0.00 in0.0 mm
02:10 PM 82.0°F27.8°C 61.6°F16.4°C 50% 6.9 mph E11.1 kmh E 11.5 mph18.5 kmh 29.79 in1008.8 mb - 0.00 in0.0 mm 0.00 in0.0 mm
02:20 PM 80.6°F27.0°C 61.4°F16.3°C 52% 4.6 mph E7.4 kmh E 9.2 mph14.8 kmh 29.78 in1008.5 mb - 0.00 in0.0 mm 0.00 in0.0 mm
02:30 PM 79.6°F26.4°C 61.5°F16.4°C 54% 3.5 mph ENE5.6 kmh ENE 5.8 mph9.3 kmh 29.78 in1008.5 mb - 0.00 in0.0 mm 0.00 in0.0 mm
02:40 PM 78.7°F25.9°C 61.2°F16.2°C 55% 5.8 mph E9.3 kmh E 16.1 mph25.9 kmh 29.78 in1008.5 mb - 0.00 in0.0 mm 0.00 in0.0 mm
02:50 PM 78.3°F25.7°C 60.8°F16.0°C 55% 3.5 mph E5.6 kmh E 10.4 mph16.7 kmh 29.79 in1008.8 mb - 0.00 in0.0 mm 0.00 in0.0 mm
03:00 PM 78.9°F26.1°C 61.4°F16.3°C 55% 2.3 mph E3.7 kmh E 8.1 mph13.0 kmh 29.79 in1008.8 mb - 0.00 in0.0 mm 0.00 in0.0 mm
03:10 PM 78.2°F25.7°C 61.7°F16.5°C 57% 1.2 mph ENE1.9 kmh ENE 9.2 mph14.8 kmh 29.79 in1008.8 mb - 0.00 in0.0 mm 0.00 in0.0 mm
03:20 PM 77.6°F25.3°C 61.2°F16.2°C 57% Calm Calm 5.8 mph9.3 kmh 29.79 in1008.8 mb - 0.00 in0.0 mm 0.00 in0.0 mm
03:30 PM 77.4°F25.2°C 61.0°F16.1°C 57% 3.5 mph ENE5.6 kmh ENE 9.2 mph14.8 kmh 29.79 in1008.8 mb - 0.00 in0.0 mm 0.00 in0.0 mm
03:40 PM 77.0°F25.0°C 61.6°F16.4°C 59% 1.2 mph E1.9 kmh E 8.1 mph13.0 kmh 29.79 in1008.8 mb - 0.00 in0.0 mm 0.00 in0.0 mm
03:50 PM 76.8°F24.9°C 60.9°F16.1°C 58% Calm Calm -- 29.79 in1008.8 mb - 0.00 in0.0 mm 0.00 in0.0 mm
04:00 PM 77.3°F25.2°C 60.9°F16.1°C 57% Calm Calm -- 29.79 in1008.8 mb - 0.00 in0.0 mm 0.00 in0.0 mm
04:10 PM 77.5°F25.3°C 61.1°F16.2°C 57% 1.2 mph ENE1.9 kmh ENE 9.2 mph14.8 kmh 29.79 in1008.8 mb - 0.00 in0.0 mm 0.00 in0.0 mm
04:20 PM 77.8°F25.4°C 60.8°F16.0°C 56% 3.5 mph E5.6 kmh E 9.2 mph14.8 kmh 29.79 in1008.8 mb - 0.00 in0.0 mm 0.00 in0.0 mm
04:30 PM 77.9°F25.5°C 61.4°F16.3°C 57% 2.3 mph E3.7 kmh E -- 29.79 in1008.8 mb - 0.00 in0.0 mm 0.00 in0.0 mm
04:40 PM 77.5°F25.3°C 61.1°F16.2°C 57% 1.2 mph ENE1.9 kmh ENE -- 29.79 in1008.8 mb - 0.00 in0.0 mm 0.00 in0.0 mm
04:50 PM 77.1°F25.1°C 61.7°F16.5°C 59% 2.3 mph ENE3.7 kmh ENE 11.5 mph18.5 kmh 29.79 in1008.8 mb - 0.00 in0.0 mm 0.00 in0.0 mm
05:00 PM 76.4°F24.7°C 61.0°F16.1°C 59% Calm Calm -- 29.79 in1008.8 mb - 0.00 in0.0 mm 0.00 in0.0 mm
05:10 PM 75.9°F24.4°C 61.0°F16.1°C 60% 6.9 mph ENE11.1 kmh ENE 12.7 mph20.4 kmh 29.79 in1008.8 mb - 0.00 in0.0 mm 0.00 in0.0 mm
05:20 PM 75.2°F24.0°C 60.8°F16.0°C 61% 2.3 mph ENE3.7 kmh ENE 11.5 mph18.5 kmh 29.80 in1009.1 mb - 0.00 in0.0 mm 0.00 in0.0 mm
05:30 PM 75.0°F23.9°C 61.1°F16.2°C 62% 1.2 mph ENE1.9 kmh ENE -- 29.80 in1009.1 mb - 0.00 in0.0 mm 0.00 in0.0 mm
05:40 PM 74.5°F23.6°C 60.6°F15.9°C 62% 4.6 mph ENE7.4 kmh ENE 5.8 mph9.3 kmh 29.80 in1009.1 mb - 0.00 in0.0 mm 0.00 in0.0 mm
05:50 PM 74.3°F23.5°C 60.9°F16.1°C 63% Calm Calm -- 29.80 in1009.1 mb - 0.00 in0.0 mm 0.00 in0.0 mm
06:00 PM 74.0°F23.3°C 60.6°F15.9°C 63% Calm Calm -- 29.80 in1009.1 mb - 0.00 in0.0 mm 0.00 in0.0 mm
06:10 PM 73.7°F23.2°C 60.8°F16.0°C 64% Calm Calm -- 29.80 in1009.1 mb - 0.00 in0.0 mm 0.00 in0.0 mm
06:20 PM 73.3°F22.9°C 60.8°F16.0°C 65% Calm Calm -- 29.81 in1009.5 mb - 0.00 in0.0 mm 0.00 in0.0 mm
06:30 PM 72.9°F22.7°C 61.3°F16.3°C 67% Calm Calm -- 29.81 in1009.5 mb - 0.00 in0.0 mm 0.00 in0.0 mm
06:40 PM 72.4°F22.4°C 61.2°F16.2°C 68% Calm Calm -- 29.82 in1009.8 mb - 0.00 in0.0 mm 0.00 in0.0 mm
06:50 PM 72.0°F22.2°C 61.3°F16.3°C 69% Calm Calm -- 29.83 in1010.2 mb - 0.00 in0.0 mm 0.00 in0.0 mm
07:00 PM 71.6°F22.0°C 61.7°F16.5°C 71% Calm Calm -- 29.83 in1010.2 mb - 0.00 in0.0 mm 0.00 in0.0 mm
07:10 PM 71.3°F21.8°C 61.8°F16.6°C 72% Calm Calm -- 29.84 in1010.5 mb - 0.00 in0.0 mm 0.00 in0.0 mm
07:20 PM 71.0°F21.7°C 61.5°F16.4°C 72% Calm Calm -- 29.84 in1010.5 mb - 0.00 in0.0 mm 0.00 in0.0 mm
07:30 PM 70.7°F21.5°C 61.6°F16.4°C 73% Calm Calm -- 29.85 in1010.8 mb - 0.00 in0.0 mm 0.00 in0.0 mm
07:40 PM 70.4°F21.3°C 61.3°F16.3°C 73% Calm Calm -- 29.85 in1010.8 mb - 0.00 in0.0 mm 0.00 in0.0 mm
07:50 PM 70.2°F21.2°C 61.5°F16.4°C 74% Calm Calm -- 29.85 in1010.8 mb - 0.00 in0.0 mm 0.00 in0.0 mm
08:00 PM 70.0°F21.1°C 61.7°F16.5°C 75% Calm Calm -- 29.86 in1011.2 mb - 0.00 in0.0 mm 0.00 in0.0 mm
08:10 PM 69.8°F21.0°C 61.5°F16.4°C 75% Calm Calm -- 29.87 in1011.5 mb - 0.00 in0.0 mm 0.00 in0.0 mm
08:20 PM 69.5°F20.8°C 60.9°F16.1°C 74% 1.2 mph S1.9 kmh S 11.5 mph18.5 kmh 29.88 in1011.9 mb - 0.00 in0.0 mm 0.00 in0.0 mm
08:30 PM 69.3°F20.7°C 59.9°F15.5°C 72% 4.6 mph S7.4 kmh S 13.8 mph22.2 kmh 29.89 in1012.2 mb - 0.00 in0.0 mm 0.00 in0.0 mm
08:40 PM 69.2°F20.7°C 59.4°F15.2°C 71% 1.2 mph SSW1.9 kmh SSW 5.8 mph9.3 kmh 29.89 in1012.2 mb - 0.00 in0.0 mm 0.00 in0.0 mm
08:50 PM 69.1°F20.6°C 59.3°F15.2°C 71% Calm Calm -- 29.89 in1012.2 mb - 0.00 in0.0 mm 0.00 in0.0 mm
09:00 PM 69.0°F20.6°C 59.2°F15.1°C 71% 6.9 mph SSW11.1 kmh SSW 11.5 mph18.5 kmh 29.89 in1012.2 mb - 0.00 in0.0 mm 0.00 in0.0 mm
09:10 PM 68.8°F20.4°C 59.0°F15.0°C 71% 6.9 mph S11.1 kmh S 18.4 mph29.6 kmh 29.90 in1012.5 mb - 0.00 in0.0 mm 0.00 in0.0 mm
09:20 PM 68.7°F20.4°C 58.9°F14.9°C 71% 4.6 mph SSW7.4 kmh SSW 18.4 mph29.6 kmh 29.89 in1012.2 mb - 0.00 in0.0 mm 0.00 in0.0 mm
09:30 PM 68.6°F20.3°C 58.8°F14.9°C 71% 8.1 mph S13.0 kmh S 11.5 mph18.5 kmh 29.89 in1012.2 mb - 0.00 in0.0 mm 0.00 in0.0 mm
09:40 PM 68.5°F20.3°C 59.1°F15.1°C 72% 3.5 mph S5.6 kmh S 15.0 mph24.1 kmh 29.90 in1012.5 mb - 0.00 in0.0 mm 0.00 in0.0 mm
09:50 PM 68.4°F20.2°C 59.0°F15.0°C 72% 1.2 mph SSW1.9 kmh SSW 2.3 mph3.7 kmh 29.90 in1012.5 mb - 0.00 in0.0 mm 0.00 in0.0 mm
10:00 PM 68.2°F20.1°C 58.8°F14.9°C 72% 3.5 mph S5.6 kmh S 11.5 mph18.5 kmh 29.90 in1012.5 mb - 0.00 in0.0 mm 0.00 in0.0 mm
10:10 PM 68.0°F20.0°C 59.0°F15.0°C 73% 3.5 mph S5.6 kmh S 16.1 mph25.9 kmh 29.91 in1012.9 mb - 0.00 in0.0 mm 0.00 in0.0 mm
10:20 PM 67.7°F19.8°C 58.3°F14.6°C 72% 3.5 mph SSW5.6 kmh SSW 8.1 mph13.0 kmh 29.90 in1012.5 mb - 0.00 in0.0 mm 0.00 in0.0 mm
10:30 PM 67.2°F19.6°C 57.5°F14.2°C 71% 8.1 mph S13.0 kmh S 13.8 mph22.2 kmh 29.91 in1012.9 mb - 0.00 in0.0 mm 0.00 in0.0 mm
10:40 PM 66.5°F19.2°C 56.8°F13.8°C 71% 4.6 mph SSW7.4 kmh SSW 15.0 mph24.1 kmh 29.91 in1012.9 mb - 0.00 in0.0 mm 0.00 in0.0 mm
10:50 PM 66.2°F19.0°C 56.5°F13.6°C 71% 5.8 mph S9.3 kmh S 8.1 mph13.0 kmh 29.91 in1012.9 mb - 0.00 in0.0 mm 0.00 in0.0 mm
11:00 PM 66.0°F18.9°C 55.5°F13.1°C 69% 9.2 mph SSW14.8 kmh SSW 13.8 mph22.2 kmh 29.91 in1012.9 mb - 0.00 in0.0 mm 0.00 in0.0 mm
11:10 PM 65.9°F18.8°C 55.0°F12.8°C 68% 9.2 mph S14.8 kmh S 18.4 mph29.6 kmh 29.91 in1012.9 mb - 0.00 in0.0 mm 0.00 in0.0 mm
11:20 PM 65.7°F18.7°C 54.4°F12.4°C 67% 9.2 mph S14.8 kmh S 11.5 mph18.5 kmh 29.91 in1012.9 mb - 0.00 in0.0 mm 0.00 in0.0 mm
11:40 PM 65.5°F18.6°C 54.2°F12.3°C 67% Calm Calm -- 29.91 in1012.9 mb - 0.00 in0.0 mm 0.00 in0.0 mm
11:50 PM 65.4°F18.6°C 54.2°F12.3°C 67% Calm Calm -- 29.90 in1012.5 mb - 0.00 in0.0 mm 0.00 in0.0 mm